createdAt,value
2019-04-21T00:00:58.120Z,9.90
2019-04-21T00:05:22.900Z,9.80
2019-04-21T00:09:31.254Z,9.80
2019-04-21T00:13:29.498Z,9.80
2019-04-21T00:17:21.098Z,9.80
2019-04-21T00:21:34.370Z,9.70
2019-04-21T00:25:42.927Z,9.70
2019-04-21T00:29:52.067Z,9.70
2019-04-21T00:33:44.692Z,9.70
2019-04-21T00:38:08.248Z,9.70
2019-04-21T00:42:13.920Z,9.70
2019-04-21T00:46:08.479Z,9.70
2019-04-21T00:50:31.430Z,9.70
2019-04-21T00:54:41.697Z,9.60
2019-04-21T00:58:39.600Z,9.60
2019-04-21T01:02:49.965Z,9.50
2019-04-21T01:06:56.040Z,9.40
2019-04-21T01:10:51.552Z,9.30
2019-04-21T01:15:15.995Z,9.20
2019-04-21T01:19:11.999Z,9.10
2019-04-21T01:22:55.974Z,9.00
2019-04-21T01:27:10.076Z,8.90
2019-04-21T01:31:22.951Z,8.90
2019-04-21T01:35:32.973Z,8.80
2019-04-21T01:39:44.054Z,8.70
2019-04-21T01:43:42.526Z,8.70
2019-04-21T01:47:49.047Z,8.60
2019-04-21T01:52:13.548Z,8.60
2019-04-21T01:56:37.066Z,8.50
2019-04-21T02:00:48.272Z,8.50
2019-04-21T02:05:03.123Z,8.40
2019-04-21T02:09:06.288Z,8.30
2019-04-21T02:13:09.071Z,8.20
2019-04-21T02:17:20.490Z,8.20
2019-04-21T02:21:20.383Z,8.10
2019-04-21T02:25:33.583Z,8.00
2019-04-21T02:29:55.948Z,8.00
2019-04-21T02:33:55.830Z,7.90
2019-04-21T02:38:03.625Z,7.80
2019-04-21T02:50:19.193Z,7.70
2019-04-21T02:54:42.086Z,7.60
2019-04-21T02:58:34.448Z,7.50
2019-04-21T03:03:07.021Z,7.40
2019-04-21T03:07:21.543Z,7.40
2019-04-21T03:11:53.392Z,7.30
2019-04-21T03:15:43.119Z,7.20
2019-04-21T03:19:55.598Z,7.10
2019-04-21T03:32:36.506Z,6.90
2019-04-21T03:44:26.300Z,6.80
2019-04-21T03:48:27.229Z,6.70
2019-04-21T04:05:29.839Z,6.40
2019-04-21T04:09:25.731Z,6.40
2019-04-21T04:13:37.610Z,6.30
2019-04-21T04:17:32.985Z,6.20
2019-04-21T04:25:51.667Z,6.00
2019-04-21T04:29:56.798Z,6.00
2019-04-21T04:34:21.015Z,5.90
2019-04-21T04:38:07.065Z,5.80
2019-04-21T04:42:27.061Z,5.80
2019-04-21T04:50:30.012Z,5.70
2019-04-21T04:59:15.956Z,5.70
2019-04-21T05:02:42.076Z,5.70
2019-04-21T05:06:56.327Z,5.70
2019-04-21T05:11:20.678Z,5.70
2019-04-21T05:15:07.912Z,5.80
2019-04-21T05:23:08.981Z,5.80
2019-04-21T05:27:07.432Z,5.80
2019-04-21T05:31:38.615Z,5.90
2019-04-21T05:36:03.121Z,5.90
2019-04-21T05:40:10.221Z,6.00
2019-04-21T05:44:28.004Z,6.10
2019-04-21T05:48:45.714Z,6.20
2019-04-21T05:52:46.192Z,6.30
2019-04-21T05:56:59.840Z,6.40
2019-04-21T06:01:15.412Z,6.50
2019-04-21T06:05:20.837Z,6.60
2019-04-21T06:09:30.887Z,6.80
2019-04-21T06:13:37.775Z,6.90
2019-04-21T06:17:37.975Z,7.10
2019-04-21T06:21:40.466Z,7.20
2019-04-21T06:29:55.783Z,7.50
2019-04-21T06:33:58.535Z,7.60
2019-04-21T06:38:03.727Z,7.80
2019-04-21T06:42:12.372Z,8.00
2019-04-21T06:46:20.104Z,8.10
2019-04-21T06:50:22.677Z,8.30
2019-04-21T06:54:30.632Z,8.50
2019-04-21T06:58:37.000Z,8.70
2019-04-21T07:03:48.634Z,8.90
2019-04-21T07:06:49.797Z,9.10
2019-04-21T07:10:54.613Z,9.40
2019-04-21T07:14:59.475Z,9.70
2019-04-21T07:19:13.884Z,10.00
2019-04-21T07:23:09.370Z,10.40
2019-04-21T07:27:15.225Z,10.70
2019-04-21T07:31:25.287Z,11.00
2019-04-21T07:35:26.953Z,11.40
2019-04-21T07:39:27.136Z,11.80
2019-04-21T07:43:33.100Z,12.20
2019-04-21T07:47:51.779Z,12.80
2019-04-21T07:52:03.393Z,12.90
2019-04-21T07:55:49.541Z,13.20
2019-04-21T08:00:20.602Z,13.60
2019-04-21T08:04:38.239Z,14.00
2019-04-21T08:08:20.851Z,14.30
2019-04-21T08:16:36.782Z,15.00
2019-04-21T08:20:34.653Z,15.30
2019-04-21T08:24:52.984Z,15.60
2019-04-21T08:28:52.374Z,16.00
2019-04-21T08:37:08.906Z,16.60
2019-04-21T08:41:08.171Z,16.90
2019-04-21T08:45:21.883Z,17.50
2019-04-21T08:49:20.851Z,17.60
2019-04-21T08:53:47.523Z,17.90
2019-04-21T08:58:00.758Z,18.30
2019-04-21T09:01:55.763Z,18.60
2019-04-21T09:06:10.563Z,19.00
2019-04-21T09:10:06.855Z,19.30
2019-04-21T09:14:13.154Z,19.70
2019-04-21T09:18:15.750Z,20.00
2019-04-21T09:22:28.733Z,20.30
2019-04-21T09:26:29.309Z,20.50
2019-04-21T09:30:19.841Z,20.80
2019-04-21T09:34:32.611Z,21.10
2019-04-21T09:38:37.098Z,21.30
2019-04-21T09:42:46.793Z,21.70
2019-04-21T09:46:49.850Z,21.90
2019-04-21T09:50:48.594Z,22.20
2019-04-21T09:55:03.703Z,22.50
2019-04-21T09:59:09.153Z,22.80
2019-04-21T10:03:12.009Z,23.00
2019-04-21T10:07:25.803Z,23.30
2019-04-21T10:11:22.659Z,23.50
2019-04-21T10:15:28.316Z,23.80
2019-04-21T10:19:33.913Z,24.00
2019-04-21T10:23:39.411Z,24.30
2019-04-21T10:27:44.986Z,24.50
2019-04-21T10:31:50.512Z,24.70
2019-04-21T10:35:55.224Z,24.90
2019-04-21T10:40:00.107Z,25.10
2019-04-21T10:44:05.056Z,25.30
2019-04-21T10:52:24.800Z,25.60
2019-04-21T10:56:35.223Z,25.80
2019-04-21T11:00:36.425Z,26.00
2019-04-21T11:04:42.273Z,26.20
2019-04-21T11:08:50.287Z,26.40
2019-04-21T11:12:52.777Z,26.50
2019-04-21T11:16:58.470Z,26.70
2019-04-21T11:21:03.106Z,26.70
2019-04-21T11:25:07.299Z,26.90
2019-04-21T11:29:12.832Z,27.00
2019-04-21T11:33:17.729Z,27.10
2019-04-21T11:37:24.237Z,27.20
2019-04-21T11:41:29.745Z,27.30
2019-04-21T11:45:36.665Z,27.40
2019-04-21T11:49:41.192Z,27.50
2019-04-21T11:53:46.496Z,27.60
2019-04-21T11:57:52.798Z,27.60
2019-04-21T12:01:57.282Z,27.70
2019-04-21T12:06:01.686Z,27.80
2019-04-21T12:10:06.400Z,27.90
2019-04-21T12:14:12.025Z,28.00
2019-04-21T12:18:17.615Z,28.10
2019-04-21T12:26:28.333Z,28.20
2019-04-21T12:30:33.526Z,28.20
2019-04-21T12:34:37.895Z,28.30
2019-04-21T12:38:48.851Z,28.30
2019-04-21T12:42:48.396Z,28.30
2019-04-21T12:46:53.946Z,28.40
2019-04-21T12:50:59.662Z,28.40
2019-04-21T12:55:05.803Z,28.40
2019-04-21T12:59:10.092Z,28.40
2019-04-21T13:03:14.457Z,28.40
2019-04-21T13:07:19.436Z,28.30
2019-04-21T13:11:23.674Z,28.30
2019-04-21T13:15:29.236Z,28.20
2019-04-21T13:19:33.593Z,28.20
2019-04-21T13:23:39.050Z,28.10
2019-04-21T13:27:43.308Z,28.10
2019-04-21T13:31:48.148Z,28.00
2019-04-21T13:35:53.125Z,28.00
2019-04-21T13:40:29.250Z,28.00
2019-04-21T13:44:15.632Z,28.00
2019-04-21T13:48:22.274Z,28.00
2019-04-21T13:52:26.897Z,28.00
2019-04-21T13:56:32.352Z,28.00
2019-04-21T14:00:37.968Z,28.00
2019-04-21T14:04:43.215Z,28.00
2019-04-21T14:08:49.170Z,28.00
2019-04-21T14:12:54.227Z,28.10
2019-04-21T14:17:00.410Z,28.10
2019-04-21T14:21:05.091Z,27.90
2019-04-21T14:25:10.173Z,28.00
2019-04-21T14:29:15.470Z,28.00
2019-04-21T14:33:20.494Z,28.00
2019-04-21T14:37:24.854Z,28.00
2019-04-21T14:41:30.314Z,28.00
2019-04-21T14:45:48.584Z,28.00
2019-04-21T14:50:24.350Z,28.00
2019-04-21T14:54:46.914Z,28.10
2019-04-21T14:58:51.175Z,28.00
2019-04-21T15:02:55.923Z,28.00
2019-04-21T15:07:01.349Z,28.00
2019-04-21T15:11:07.134Z,28.00
2019-04-21T15:15:13.619Z,28.00
2019-04-21T15:19:18.224Z,28.00
2019-04-21T15:23:25.228Z,28.00
2019-04-21T15:27:28.623Z,28.00
2019-04-21T15:31:37.728Z,28.20
2019-04-21T15:35:39.106Z,28.30
2019-04-21T15:39:44.793Z,28.50
2019-04-21T15:43:48.992Z,28.70
2019-04-21T15:47:53.953Z,29.00
2019-04-21T15:51:58.279Z,29.40
2019-04-21T15:56:20.677Z,29.90
2019-04-21T16:00:36.409Z,30.30
2019-04-21T16:04:40.951Z,30.80
2019-04-21T16:12:52.048Z,31.50
2019-04-21T16:16:57.095Z,31.80
2019-04-21T16:21:02.077Z,31.90
2019-04-21T16:25:06.538Z,32.00
2019-04-21T16:29:11.287Z,32.00
2019-04-21T16:33:16.012Z,32.00
2019-04-21T16:37:21.471Z,31.90
2019-04-21T16:41:26.480Z,31.70
2019-04-21T16:45:30.863Z,31.60
2019-04-21T16:49:35.853Z,31.40
2019-04-21T16:53:48.061Z,31.20
2019-04-21T16:58:06.795Z,30.90
2019-04-21T17:02:02.686Z,30.70
2019-04-21T17:06:07.078Z,30.30
2019-04-21T17:10:12.705Z,29.90
2019-04-21T17:14:31.199Z,29.50
2019-04-21T17:18:40.645Z,29.10
2019-04-21T17:22:28.777Z,28.50
2019-04-21T17:26:36.210Z,28.00
2019-04-21T17:30:39.955Z,27.50
2019-04-21T17:34:45.819Z,26.90
2019-04-21T17:38:50.247Z,26.40
2019-04-21T17:43:02.094Z,25.90
2019-04-21T17:47:05.261Z,25.50
2019-04-21T17:51:25.517Z,25.00
2019-04-21T17:55:35.082Z,24.60
2019-04-21T18:00:04.342Z,24.30
2019-04-21T18:04:03.799Z,23.60
2019-04-21T18:08:11.332Z,23.50
2019-04-21T18:12:10.815Z,23.30
2019-04-21T18:16:10.771Z,22.90
2019-04-21T18:20:07.844Z,22.70
2019-04-21T18:24:19.297Z,22.40
2019-04-21T18:28:18.666Z,22.10
2019-04-21T18:32:27.616Z,21.80
2019-04-21T18:36:36.638Z,21.60
2019-04-21T18:40:42.802Z,21.30
2019-04-21T18:45:40.422Z,21.10
2019-04-21T18:49:17.387Z,20.90
2019-04-21T18:53:44.752Z,20.70
2019-04-21T18:57:42.054Z,20.50
2019-04-21T19:01:50.029Z,20.30
2019-04-21T19:05:53.176Z,20.10
2019-04-21T19:10:33.940Z,19.90
2019-04-21T19:14:39.751Z,19.70
2019-04-21T19:22:32.858Z,19.30
2019-04-21T19:26:46.774Z,19.20
2019-04-21T19:30:52.586Z,19.00
2019-04-21T19:34:39.882Z,18.90
2019-04-21T19:38:48.998Z,18.70
2019-04-21T19:42:57.065Z,18.70
2019-04-21T19:47:10.537Z,18.50
2019-04-21T19:51:17.193Z,18.50
2019-04-21T19:55:04.510Z,18.30
2019-04-21T19:59:12.853Z,18.20
2019-04-21T20:03:14.758Z,18.10
2019-04-21T20:07:33.180Z,18.00
2019-04-21T20:11:41.722Z,18.00
2019-04-21T20:15:51.079Z,17.90
2019-04-21T20:19:36.500Z,17.90
2019-04-21T20:23:42.770Z,17.80
2019-04-21T20:27:58.207Z,17.70
2019-04-21T20:32:16.299Z,17.50
2019-04-21T20:36:23.701Z,17.40
2019-04-21T20:40:17.783Z,17.30
2019-04-21T20:44:29.810Z,17.20
2019-04-21T20:48:27.266Z,17.10
2019-04-21T20:52:41.823Z,17.00
2019-04-21T20:56:49.697Z,16.90
2019-04-21T21:01:08.735Z,16.80
2019-04-21T21:04:52.721Z,16.70
2019-04-21T21:09:09.057Z,16.60
2019-04-21T21:13:24.299Z,16.50
2019-04-21T21:17:36.216Z,16.40
2019-04-21T21:21:22.317Z,16.40
2019-04-21T21:25:38.236Z,16.30
2019-04-21T21:29:33.464Z,16.20
2019-04-21T21:33:50.821Z,16.10
2019-04-21T21:37:49.259Z,16.10
2019-04-21T21:41:44.151Z,16.00
2019-04-21T21:45:47.491Z,16.00
2019-04-21T21:50:00.773Z,15.90
2019-04-21T21:54:13.786Z,15.90
2019-04-21T21:58:25.332Z,15.80
2019-04-21T22:02:33.515Z,15.80
2019-04-21T22:06:39.975Z,15.70
2019-04-21T22:10:37.059Z,15.60
2019-04-21T22:14:45.502Z,15.60
2019-04-21T22:19:11.839Z,15.50
2019-04-21T22:22:58.375Z,15.40
2019-04-21T22:26:59.300Z,15.40
2019-04-21T22:31:08.170Z,15.30
2019-04-21T22:35:16.780Z,15.20
2019-04-21T22:39:38.977Z,15.20
2019-04-21T22:43:30.518Z,15.20
2019-04-21T22:47:32.659Z,15.10
2019-04-21T22:51:38.392Z,15.10
2019-04-21T22:55:39.347Z,15.00
2019-04-21T22:59:45.408Z,15.00
2019-04-21T23:03:55.283Z,14.90
2019-04-21T23:08:01.374Z,14.90
2019-04-21T23:12:03.120Z,14.80
2019-04-21T23:16:08.366Z,14.80
2019-04-21T23:20:31.545Z,14.70
2019-04-21T23:24:40.030Z,14.60
2019-04-21T23:28:48.665Z,14.60
2019-04-21T23:32:42.242Z,14.50
2019-04-21T23:36:41.855Z,14.40
2019-04-21T23:40:48.745Z,14.40
2019-04-21T23:44:52.923Z,14.30
2019-04-21T23:49:07.510Z,14.30
2019-04-21T23:53:01.604Z,14.30
2019-04-21T23:57:11.879Z,14.20
